sensor_id;sensor_type;location;lat;lon;timestamp;temperature;humidity
435;DHT22;204;48.942;9.256;2023-03-26T00:00:40;8.80;1.00
435;DHT22;204;48.942;9.256;2023-03-26T00:03:09;8.70;1.00
435;DHT22;204;48.942;9.256;2023-03-26T00:05:36;8.60;1.00
435;DHT22;204;48.942;9.256;2023-03-26T00:08:02;8.60;1.00
435;DHT22;204;48.942;9.256;2023-03-26T00:10:28;8.50;1.00
435;DHT22;204;48.942;9.256;2023-03-26T00:12:53;8.60;1.00
435;DHT22;204;48.942;9.256;2023-03-26T00:15:19;8.60;1.00
435;DHT22;204;48.942;9.256;2023-03-26T00:17:45;8.70;1.00
435;DHT22;204;48.942;9.256;2023-03-26T00:20:12;8.70;1.00
435;DHT22;204;48.942;9.256;2023-03-26T00:22:39;8.70;1.00
435;DHT22;204;48.942;9.256;2023-03-26T00:25:05;8.70;1.00
435;DHT22;204;48.942;9.256;2023-03-26T00:27:33;8.60;1.00
435;DHT22;204;48.942;9.256;2023-03-26T00:30:00;8.60;1.00
435;DHT22;204;48.942;9.256;2023-03-26T00:32:30;8.60;1.00
435;DHT22;204;48.942;9.256;2023-03-26T00:34:58;8.50;1.00
435;DHT22;204;48.942;9.256;2023-03-26T00:37:26;8.40;1.00
435;DHT22;204;48.942;9.256;2023-03-26T00:39:52;8.40;1.00
435;DHT22;204;48.942;9.256;2023-03-26T00:42:19;8.40;1.00
435;DHT22;204;48.942;9.256;2023-03-26T00:44:45;8.40;1.00
435;DHT22;204;48.942;9.256;2023-03-26T00:47:10;8.40;1.00
435;DHT22;204;48.942;9.256;2023-03-26T00:49:37;8.30;1.00
435;DHT22;204;48.942;9.256;2023-03-26T00:52:03;8.30;1.00
435;DHT22;204;48.942;9.256;2023-03-26T00:54:33;8.30;1.00
435;DHT22;204;48.942;9.256;2023-03-26T00:56:59;8.30;1.00
435;DHT22;204;48.942;9.256;2023-03-26T00:59:24;8.20;1.00
435;DHT22;204;48.942;9.256;2023-03-26T01:01:55;8.20;1.00
435;DHT22;204;48.942;9.256;2023-03-26T01:04:25;8.20;1.00
435;DHT22;204;48.942;9.256;2023-03-26T01:06:53;8.20;1.00
435;DHT22;204;48.942;9.256;2023-03-26T01:09:21;8.20;1.00
435;DHT22;204;48.942;9.256;2023-03-26T01:11:49;8.20;1.00
435;DHT22;204;48.942;9.256;2023-03-26T01:14:18;8.20;1.00
435;DHT22;204;48.942;9.256;2023-03-26T01:16:56;8.20;1.00
435;DHT22;204;48.942;9.256;2023-03-26T01:22:53;8.20;1.00
435;DHT22;204;48.942;9.256;2023-03-26T01:25:21;8.10;1.00
435;DHT22;204;48.942;9.256;2023-03-26T01:27:49;8.10;1.00
435;DHT22;204;48.942;9.256;2023-03-26T01:30:44;8.00;1.00
435;DHT22;204;48.942;9.256;2023-03-26T01:35:52;7.90;1.00
435;DHT22;204;48.942;9.256;2023-03-26T01:46:15;7.80;1.00
435;DHT22;204;48.942;9.256;2023-03-26T01:48:43;7.80;1.00
435;DHT22;204;48.942;9.256;2023-03-26T01:51:10;7.70;1.00
435;DHT22;204;48.942;9.256;2023-03-26T01:53:40;7.70;1.00
435;DHT22;204;48.942;9.256;2023-03-26T02:01:57;7.80;1.00
435;DHT22;204;48.942;9.256;2023-03-26T02:04:45;7.80;1.00
435;DHT22;204;48.942;9.256;2023-03-26T02:07:25;7.80;1.00
435;DHT22;204;48.942;9.256;2023-03-26T02:10:01;7.90;1.00
435;DHT22;204;48.942;9.256;2023-03-26T02:12:31;7.90;1.00
435;DHT22;204;48.942;9.256;2023-03-26T02:14:59;7.90;1.00
435;DHT22;204;48.942;9.256;2023-03-26T02:17:25;7.90;1.00
435;DHT22;204;48.942;9.256;2023-03-26T02:19:55;7.90;1.00
435;DHT22;204;48.942;9.256;2023-03-26T02:22:21;7.90;1.00
435;DHT22;204;48.942;9.256;2023-03-26T02:24:47;7.90;1.00
435;DHT22;204;48.942;9.256;2023-03-26T02:27:13;7.90;1.00
435;DHT22;204;48.942;9.256;2023-03-26T02:29:39;7.90;1.00
435;DHT22;204;48.942;9.256;2023-03-26T02:32:06;8.00;1.00
435;DHT22;204;48.942;9.256;2023-03-26T02:34:32;8.00;1.00
435;DHT22;204;48.942;9.256;2023-03-26T02:36:58;8.00;1.00
435;DHT22;204;48.942;9.256;2023-03-26T02:39:24;8.00;1.00
435;DHT22;204;48.942;9.256;2023-03-26T02:41:50;8.00;1.00
435;DHT22;204;48.942;9.256;2023-03-26T02:44:16;8.00;1.00
435;DHT22;204;48.942;9.256;2023-03-26T02:46:41;8.00;1.00
435;DHT22;204;48.942;9.256;2023-03-26T02:49:07;8.10;1.00
435;DHT22;204;48.942;9.256;2023-03-26T02:51:32;8.10;1.00
435;DHT22;204;48.942;9.256;2023-03-26T02:54:02;8.10;1.00
435;DHT22;204;48.942;9.256;2023-03-26T02:56:28;8.10;1.00
435;DHT22;204;48.942;9.256;2023-03-26T02:58:54;8.10;1.00
435;DHT22;204;48.942;9.256;2023-03-26T03:01:20;8.20;1.00
435;DHT22;204;48.942;9.256;2023-03-26T03:03:47;8.20;1.00
435;DHT22;204;48.942;9.256;2023-03-26T03:06:16;8.20;1.00
435;DHT22;204;48.942;9.256;2023-03-26T03:08:43;8.20;1.00
435;DHT22;204;48.942;9.256;2023-03-26T03:11:13;8.20;1.00
435;DHT22;204;48.942;9.256;2023-03-26T03:13:39;8.30;1.00
435;DHT22;204;48.942;9.256;2023-03-26T03:16:05;8.30;1.00
435;DHT22;204;48.942;9.256;2023-03-26T03:18:31;8.30;1.00
435;DHT22;204;48.942;9.256;2023-03-26T03:20:56;8.40;1.00
435;DHT22;204;48.942;9.256;2023-03-26T03:23:22;8.40;1.00
435;DHT22;204;48.942;9.256;2023-03-26T03:25:47;8.40;1.00
435;DHT22;204;48.942;9.256;2023-03-26T03:28:15;8.50;1.00
435;DHT22;204;48.942;9.256;2023-03-26T03:30:42;8.60;1.00
435;DHT22;204;48.942;9.256;2023-03-26T03:33:08;8.60;1.00
435;DHT22;204;48.942;9.256;2023-03-26T03:35:34;8.70;1.00
435;DHT22;204;48.942;9.256;2023-03-26T03:38:00;8.70;1.00
435;DHT22;204;48.942;9.256;2023-03-26T03:40:25;8.70;1.00
435;DHT22;204;48.942;9.256;2023-03-26T03:42:51;8.70;1.00
435;DHT22;204;48.942;9.256;2023-03-26T03:45:17;8.70;1.00
435;DHT22;204;48.942;9.256;2023-03-26T03:47:43;8.80;1.00
435;DHT22;204;48.942;9.256;2023-03-26T03:50:09;8.80;1.00
435;DHT22;204;48.942;9.256;2023-03-26T03:52:35;8.80;1.00
435;DHT22;204;48.942;9.256;2023-03-26T03:55:01;8.80;1.00
435;DHT22;204;48.942;9.256;2023-03-26T03:57:28;8.90;1.00
435;DHT22;204;48.942;9.256;2023-03-26T03:59:56;8.90;1.00
435;DHT22;204;48.942;9.256;2023-03-26T04:02:23;8.90;1.00
435;DHT22;204;48.942;9.256;2023-03-26T04:04:58;8.90;1.00
435;DHT22;204;48.942;9.256;2023-03-26T04:07:25;8.90;1.00
435;DHT22;204;48.942;9.256;2023-03-26T04:09:51;9.00;1.00
435;DHT22;204;48.942;9.256;2023-03-26T04:12:17;9.00;1.00
435;DHT22;204;48.942;9.256;2023-03-26T04:14:43;9.00;1.00
435;DHT22;204;48.942;9.256;2023-03-26T04:17:08;9.10;1.00
435;DHT22;204;48.942;9.256;2023-03-26T04:19:34;9.10;1.00
435;DHT22;204;48.942;9.256;2023-03-26T04:22:00;9.10;1.00
435;DHT22;204;48.942;9.256;2023-03-26T04:24:27;9.10;1.00
435;DHT22;204;48.942;9.256;2023-03-26T04:26:54;9.10;1.00
435;DHT22;204;48.942;9.256;2023-03-26T04:29:20;9.10;1.00
435;DHT22;204;48.942;9.256;2023-03-26T04:31:51;9.20;1.00
435;DHT22;204;48.942;9.256;2023-03-26T04:34:23;9.10;1.00
435;DHT22;204;48.942;9.256;2023-03-26T04:36:52;9.10;1.00
435;DHT22;204;48.942;9.256;2023-03-26T04:39:20;9.10;1.00
435;DHT22;204;48.942;9.256;2023-03-26T04:41:46;9.10;1.00
435;DHT22;204;48.942;9.256;2023-03-26T04:44:13;9.10;1.00
435;DHT22;204;48.942;9.256;2023-03-26T04:46:41;9.10;1.00
435;DHT22;204;48.942;9.256;2023-03-26T04:49:08;9.10;1.00
435;DHT22;204;48.942;9.256;2023-03-26T04:51:38;9.10;1.00
435;DHT22;204;48.942;9.256;2023-03-26T04:54:07;9.10;1.00
435;DHT22;204;48.942;9.256;2023-03-26T04:59:10;9.10;1.00
435;DHT22;204;48.942;9.256;2023-03-26T05:01:38;9.00;1.00
435;DHT22;204;48.942;9.256;2023-03-26T05:04:04;8.90;1.00
435;DHT22;204;48.942;9.256;2023-03-26T05:06:30;8.80;1.00
435;DHT22;204;48.942;9.256;2023-03-26T05:09:01;8.70;1.00
435;DHT22;204;48.942;9.256;2023-03-26T05:11:27;8.70;1.00
435;DHT22;204;48.942;9.256;2023-03-26T05:13:53;8.70;1.00
435;DHT22;204;48.942;9.256;2023-03-26T05:16:18;8.70;1.00
435;DHT22;204;48.942;9.256;2023-03-26T05:18:44;8.70;1.00
435;DHT22;204;48.942;9.256;2023-03-26T05:21:11;8.80;1.00
435;DHT22;204;48.942;9.256;2023-03-26T05:23:36;8.80;1.00
435;DHT22;204;48.942;9.256;2023-03-26T05:26:02;8.80;1.00
435;DHT22;204;48.942;9.256;2023-03-26T05:28:28;8.80;1.00
435;DHT22;204;48.942;9.256;2023-03-26T05:30:53;8.80;1.00
435;DHT22;204;48.942;9.256;2023-03-26T05:33:20;8.80;1.00
435;DHT22;204;48.942;9.256;2023-03-26T05:35:46;8.80;1.00
435;DHT22;204;48.942;9.256;2023-03-26T05:38:13;8.80;1.00
435;DHT22;204;48.942;9.256;2023-03-26T05:40:39;8.80;1.00
435;DHT22;204;48.942;9.256;2023-03-26T05:43:05;8.90;1.00
435;DHT22;204;48.942;9.256;2023-03-26T05:45:30;8.90;1.00
435;DHT22;204;48.942;9.256;2023-03-26T05:47:56;8.90;1.00
435;DHT22;204;48.942;9.256;2023-03-26T05:50:22;9.00;1.00
435;DHT22;204;48.942;9.256;2023-03-26T05:52:47;9.00;1.00
435;DHT22;204;48.942;9.256;2023-03-26T05:55:13;9.10;1.00
435;DHT22;204;48.942;9.256;2023-03-26T05:57:39;9.10;1.00
435;DHT22;204;48.942;9.256;2023-03-26T06:00:07;9.20;1.00
435;DHT22;204;48.942;9.256;2023-03-26T06:02:34;9.30;1.00
435;DHT22;204;48.942;9.256;2023-03-26T06:05:00;9.30;1.00
435;DHT22;204;48.942;9.256;2023-03-26T06:07:27;9.30;1.00
435;DHT22;204;48.942;9.256;2023-03-26T06:09:52;9.40;1.00
435;DHT22;204;48.942;9.256;2023-03-26T06:12:18;9.50;1.00
435;DHT22;204;48.942;9.256;2023-03-26T06:14:44;9.50;1.00
435;DHT22;204;48.942;9.256;2023-03-26T06:17:12;9.60;1.00
435;DHT22;204;48.942;9.256;2023-03-26T06:19:37;9.50;1.00
435;DHT22;204;48.942;9.256;2023-03-26T06:22:03;9.50;1.00
435;DHT22;204;48.942;9.256;2023-03-26T06:24:29;9.40;1.00
435;DHT22;204;48.942;9.256;2023-03-26T06:26:55;9.40;1.00
435;DHT22;204;48.942;9.256;2023-03-26T06:29:21;9.30;1.00
435;DHT22;204;48.942;9.256;2023-03-26T06:31:46;9.30;1.00
435;DHT22;204;48.942;9.256;2023-03-26T06:34:12;9.30;1.00
435;DHT22;204;48.942;9.256;2023-03-26T06:36:38;9.40;1.00
435;DHT22;204;48.942;9.256;2023-03-26T06:39:03;9.40;1.00
435;DHT22;204;48.942;9.256;2023-03-26T06:41:32;9.50;1.00
435;DHT22;204;48.942;9.256;2023-03-26T06:43:59;9.60;1.00
435;DHT22;204;48.942;9.256;2023-03-26T06:46:24;9.70;1.00
435;DHT22;204;48.942;9.256;2023-03-26T06:48:50;9.80;1.00
435;DHT22;204;48.942;9.256;2023-03-26T06:51:16;9.90;1.00
435;DHT22;204;48.942;9.256;2023-03-26T06:53:42;10.00;1.00
435;DHT22;204;48.942;9.256;2023-03-26T06:56:08;10.10;1.00
435;DHT22;204;48.942;9.256;2023-03-26T06:58:34;10.20;1.00
435;DHT22;204;48.942;9.256;2023-03-26T07:00:59;10.40;1.00
435;DHT22;204;48.942;9.256;2023-03-26T07:03:25;10.40;1.00
435;DHT22;204;48.942;9.256;2023-03-26T07:05:50;10.50;1.00
435;DHT22;204;48.942;9.256;2023-03-26T07:08:16;10.60;1.00
435;DHT22;204;48.942;9.256;2023-03-26T07:10:42;10.70;1.00
435;DHT22;204;48.942;9.256;2023-03-26T07:13:08;10.70;1.00
435;DHT22;204;48.942;9.256;2023-03-26T07:15:33;10.70;1.00
435;DHT22;204;48.942;9.256;2023-03-26T07:18:00;10.70;1.00
435;DHT22;204;48.942;9.256;2023-03-26T07:20:26;10.70;1.00
435;DHT22;204;48.942;9.256;2023-03-26T07:22:51;10.80;1.00
435;DHT22;204;48.942;9.256;2023-03-26T07:25:18;10.80;1.00
435;DHT22;204;48.942;9.256;2023-03-26T07:33:25;10.90;1.00
435;DHT22;204;48.942;9.256;2023-03-26T07:36:07;11.00;1.00
435;DHT22;204;48.942;9.256;2023-03-26T07:38:54;11.10;1.00
435;DHT22;204;48.942;9.256;2023-03-26T07:41:57;11.20;1.00
435;DHT22;204;48.942;9.256;2023-03-26T07:47:04;11.20;1.00
435;DHT22;204;48.942;9.256;2023-03-26T07:49:33;11.20;1.00
435;DHT22;204;48.942;9.256;2023-03-26T07:51:59;11.30;1.00
435;DHT22;204;48.942;9.256;2023-03-26T07:54:25;11.30;1.00
435;DHT22;204;48.942;9.256;2023-03-26T07:56:58;11.30;1.00
435;DHT22;204;48.942;9.256;2023-03-26T07:59:30;11.20;1.00
435;DHT22;204;48.942;9.256;2023-03-26T08:04:59;11.20;1.00
435;DHT22;204;48.942;9.256;2023-03-26T08:13:55;11.10;1.00
435;DHT22;204;48.942;9.256;2023-03-26T08:16:44;11.00;1.00
435;DHT22;204;48.942;9.256;2023-03-26T08:27:36;10.90;1.00
435;DHT22;204;48.942;9.256;2023-03-26T08:30:13;10.90;1.00
435;DHT22;204;48.942;9.256;2023-03-26T08:32:41;10.90;1.00
435;DHT22;204;48.942;9.256;2023-03-26T08:35:14;10.90;1.00
435;DHT22;204;48.942;9.256;2023-03-26T08:37:39;10.80;1.00
435;DHT22;204;48.942;9.256;2023-03-26T08:40:06;10.70;1.00
435;DHT22;204;48.942;9.256;2023-03-26T08:43:30;10.70;1.00
435;DHT22;204;48.942;9.256;2023-03-26T09:10:31;10.40;1.00
435;DHT22;204;48.942;9.256;2023-03-26T09:19:01;11.00;1.00
435;DHT22;204;48.942;9.256;2023-03-26T09:33:03;11.10;1.00
435;DHT22;204;48.942;9.256;2023-03-26T09:43:46;12.30;1.00
435;DHT22;204;48.942;9.256;2023-03-26T09:46:33;12.80;1.00
435;DHT22;204;48.942;9.256;2023-03-26T10:00:20;15.30;1.00
435;DHT22;204;48.942;9.256;2023-03-26T10:06:11;15.50;1.00
435;DHT22;204;48.942;9.256;2023-03-26T10:31:25;16.60;1.00
435;DHT22;204;48.942;9.256;2023-03-26T10:33:56;16.60;1.00
435;DHT22;204;48.942;9.256;2023-03-26T10:47:25;17.20;1.00
435;DHT22;204;48.942;9.256;2023-03-26T10:50:14;17.20;1.00
435;DHT22;204;48.942;9.256;2023-03-26T10:55:43;17.00;1.00
435;DHT22;204;48.942;9.256;2023-03-26T10:58:24;16.70;1.00
435;DHT22;204;48.942;9.256;2023-03-26T11:01:04;16.60;1.00
435;DHT22;204;48.942;9.256;2023-03-26T11:06:29;15.80;1.00
435;DHT22;204;48.942;9.256;2023-03-26T11:08:57;15.60;1.00
435;DHT22;204;48.942;9.256;2023-03-26T11:11:34;15.60;1.00
435;DHT22;204;48.942;9.256;2023-03-26T11:15:00;15.80;1.00
435;DHT22;204;48.942;9.256;2023-03-26T11:20:43;16.20;1.00
435;DHT22;204;48.942;9.256;2023-03-26T11:29:26;16.30;1.00
435;DHT22;204;48.942;9.256;2023-03-26T11:32:00;16.20;1.00
435;DHT22;204;48.942;9.256;2023-03-26T11:34:39;16.10;1.00
435;DHT22;204;48.942;9.256;2023-03-26T11:37:19;15.90;1.00
435;DHT22;204;48.942;9.256;2023-03-26T11:39:53;15.90;1.00
435;DHT22;204;48.942;9.256;2023-03-26T11:42:22;15.90;1.00
435;DHT22;204;48.942;9.256;2023-03-26T11:44:54;16.00;1.00
435;DHT22;204;48.942;9.256;2023-03-26T11:47:37;16.10;1.00
435;DHT22;204;48.942;9.256;2023-03-26T11:50:06;16.00;1.00
435;DHT22;204;48.942;9.256;2023-03-26T11:52:34;16.00;1.00
435;DHT22;204;48.942;9.256;2023-03-26T11:55:00;15.80;1.00
435;DHT22;204;48.942;9.256;2023-03-26T11:57:28;15.60;1.00
435;DHT22;204;48.942;9.256;2023-03-26T12:00:11;15.30;1.00
435;DHT22;204;48.942;9.256;2023-03-26T12:02:44;14.80;1.00
435;DHT22;204;48.942;9.256;2023-03-26T12:05:17;14.60;1.00
435;DHT22;204;48.942;9.256;2023-03-26T12:08:01;14.50;1.00
435;DHT22;204;48.942;9.256;2023-03-26T12:12:58;14.30;1.00
435;DHT22;204;48.942;9.256;2023-03-26T12:15:25;14.20;1.00
435;DHT22;204;48.942;9.256;2023-03-26T12:17:54;14.10;1.00
435;DHT22;204;48.942;9.256;2023-03-26T12:22:53;14.30;1.00
435;DHT22;204;48.942;9.256;2023-03-26T12:25:25;14.30;1.00
435;DHT22;204;48.942;9.256;2023-03-26T12:30:32;14.10;1.00
435;DHT22;204;48.942;9.256;2023-03-26T12:33:18;14.00;1.00
435;DHT22;204;48.942;9.256;2023-03-26T12:35:46;14.00;1.00
435;DHT22;204;48.942;9.256;2023-03-26T12:41:12;14.10;1.00
435;DHT22;204;48.942;9.256;2023-03-26T12:43:42;14.10;1.00
435;DHT22;204;48.942;9.256;2023-03-26T12:46:32;14.10;1.00
435;DHT22;204;48.942;9.256;2023-03-26T12:49:03;14.20;1.00
435;DHT22;204;48.942;9.256;2023-03-26T12:51:54;14.40;1.00
435;DHT22;204;48.942;9.256;2023-03-26T12:57:20;14.90;1.00
435;DHT22;204;48.942;9.256;2023-03-26T13:15:58;15.90;1.00
435;DHT22;204;48.942;9.256;2023-03-26T13:18:51;15.80;1.00
435;DHT22;204;48.942;9.256;2023-03-26T13:29:29;16.00;1.00
435;DHT22;204;48.942;9.256;2023-03-26T13:34:55;16.10;1.00
435;DHT22;204;48.942;9.256;2023-03-26T13:37:45;16.00;1.00
435;DHT22;204;48.942;9.256;2023-03-26T13:40:25;15.90;1.00
435;DHT22;204;48.942;9.256;2023-03-26T13:48:24;15.80;1.00
435;DHT22;204;48.942;9.256;2023-03-26T13:51:06;16.10;1.00
435;DHT22;204;48.942;9.256;2023-03-26T13:53:49;16.30;1.00
435;DHT22;204;48.942;9.256;2023-03-26T13:56:22;16.40;1.00
435;DHT22;204;48.942;9.256;2023-03-26T13:58:58;16.40;1.00
435;DHT22;204;48.942;9.256;2023-03-26T14:01:29;16.30;1.00
435;DHT22;204;48.942;9.256;2023-03-26T14:04:20;16.20;1.00
435;DHT22;204;48.942;9.256;2023-03-26T14:09:30;16.30;1.00
435;DHT22;204;48.942;9.256;2023-03-26T14:14:53;16.40;1.00
435;DHT22;204;48.942;9.256;2023-03-26T14:17:29;16.50;1.00
435;DHT22;204;48.942;9.256;2023-03-26T14:23:00;16.70;1.00
435;DHT22;204;48.942;9.256;2023-03-26T14:37:05;16.60;1.00
435;DHT22;204;48.942;9.256;2023-03-26T14:42:16;16.00;1.00
435;DHT22;204;48.942;9.256;2023-03-26T14:52:53;15.20;1.00
435;DHT22;204;48.942;9.256;2023-03-26T15:01:27;14.80;1.00
435;DHT22;204;48.942;9.256;2023-03-26T15:20:52;10.70;1.00
435;DHT22;204;48.942;9.256;2023-03-26T15:32:39;10.00;1.00
435;DHT22;204;48.942;9.256;2023-03-26T15:35:35;10.00;1.00
435;DHT22;204;48.942;9.256;2023-03-26T15:41:09;9.80;1.00
435;DHT22;204;48.942;9.256;2023-03-26T15:49:12;9.50;1.00
435;DHT22;204;48.942;9.256;2023-03-26T15:57:55;9.50;1.00
435;DHT22;204;48.942;9.256;2023-03-26T16:00:24;9.40;1.00
435;DHT22;204;48.942;9.256;2023-03-26T16:05:56;9.40;1.00
435;DHT22;204;48.942;9.256;2023-03-26T16:11:52;9.40;1.00
435;DHT22;204;48.942;9.256;2023-03-26T16:16:50;9.50;1.00
435;DHT22;204;48.942;9.256;2023-03-26T16:21:54;9.70;1.00
435;DHT22;204;48.942;9.256;2023-03-26T16:24:24;9.70;1.00
435;DHT22;204;48.942;9.256;2023-03-26T16:29:23;9.90;1.00
435;DHT22;204;48.942;9.256;2023-03-26T16:32:21;10.00;1.00
435;DHT22;204;48.942;9.256;2023-03-26T16:34:58;10.00;1.00
435;DHT22;204;48.942;9.256;2023-03-26T16:37:37;10.10;1.00
435;DHT22;204;48.942;9.256;2023-03-26T16:42:50;10.20;1.00
435;DHT22;204;48.942;9.256;2023-03-26T16:45:50;10.20;1.00
435;DHT22;204;48.942;9.256;2023-03-26T16:48:40;10.20;1.00
435;DHT22;204;48.942;9.256;2023-03-26T16:51:47;10.20;1.00
435;DHT22;204;48.942;9.256;2023-03-26T17:02:34;10.00;1.00
435;DHT22;204;48.942;9.256;2023-03-26T17:05:32;10.00;1.00
435;DHT22;204;48.942;9.256;2023-03-26T17:08:10;9.90;1.00
435;DHT22;204;48.942;9.256;2023-03-26T17:13:26;9.80;1.00
435;DHT22;204;48.942;9.256;2023-03-26T17:18:48;9.70;1.00
435;DHT22;204;48.942;9.256;2023-03-26T17:21:42;9.70;1.00
435;DHT22;204;48.942;9.256;2023-03-26T17:27:19;9.70;1.00
435;DHT22;204;48.942;9.256;2023-03-26T17:35:40;9.60;1.00
435;DHT22;204;48.942;9.256;2023-03-26T17:40:58;9.70;1.00
435;DHT22;204;48.942;9.256;2023-03-26T17:54:21;9.60;1.00
435;DHT22;204;48.942;9.256;2023-03-26T17:56:50;9.60;1.00
435;DHT22;204;48.942;9.256;2023-03-26T17:59:19;9.60;1.00
435;DHT22;204;48.942;9.256;2023-03-26T18:01:53;9.60;1.00
435;DHT22;204;48.942;9.256;2023-03-26T18:04:32;9.60;1.00
435;DHT22;204;48.942;9.256;2023-03-26T18:21:18;9.60;1.00
435;DHT22;204;48.942;9.256;2023-03-26T18:23:48;9.60;1.00
435;DHT22;204;48.942;9.256;2023-03-26T18:26:30;9.60;1.00
435;DHT22;204;48.942;9.256;2023-03-26T18:29:22;9.60;1.00
435;DHT22;204;48.942;9.256;2023-03-26T18:34:32;9.60;1.00
435;DHT22;204;48.942;9.256;2023-03-26T18:39:25;9.60;1.00
435;DHT22;204;48.942;9.256;2023-03-26T18:41:51;9.60;1.00
435;DHT22;204;48.942;9.256;2023-03-26T18:44:18;9.50;1.00
435;DHT22;204;48.942;9.256;2023-03-26T18:46:44;9.50;1.00
435;DHT22;204;48.942;9.256;2023-03-26T18:49:12;9.50;1.00
435;DHT22;204;48.942;9.256;2023-03-26T18:51:40;9.50;1.00
435;DHT22;204;48.942;9.256;2023-03-26T18:54:11;9.50;1.00
435;DHT22;204;48.942;9.256;2023-03-26T18:56:39;9.50;1.00
435;DHT22;204;48.942;9.256;2023-03-26T18:59:22;9.40;1.00
435;DHT22;204;48.942;9.256;2023-03-26T19:01:55;9.40;1.00
435;DHT22;204;48.942;9.256;2023-03-26T19:04:22;9.40;1.00
435;DHT22;204;48.942;9.256;2023-03-26T19:06:49;9.30;1.00
435;DHT22;204;48.942;9.256;2023-03-26T19:09:19;9.30;1.00
435;DHT22;204;48.942;9.256;2023-03-26T19:11:48;9.20;1.00
435;DHT22;204;48.942;9.256;2023-03-26T19:14:16;9.20;1.00
435;DHT22;204;48.942;9.256;2023-03-26T19:16:51;9.10;1.00
435;DHT22;204;48.942;9.256;2023-03-26T19:19:22;9.10;1.00
435;DHT22;204;48.942;9.256;2023-03-26T19:21:50;9.00;1.00
435;DHT22;204;48.942;9.256;2023-03-26T19:24:17;9.00;1.00
435;DHT22;204;48.942;9.256;2023-03-26T19:26:44;9.00;1.00
435;DHT22;204;48.942;9.256;2023-03-26T19:29:17;9.00;1.00
435;DHT22;204;48.942;9.256;2023-03-26T19:31:43;9.00;1.00
435;DHT22;204;48.942;9.256;2023-03-26T19:36:52;8.90;1.00
435;DHT22;204;48.942;9.256;2023-03-26T19:39:23;8.90;1.00
435;DHT22;204;48.942;9.256;2023-03-26T19:41:50;8.80;1.00
435;DHT22;204;48.942;9.256;2023-03-26T19:44:24;8.80;1.00
435;DHT22;204;48.942;9.256;2023-03-26T19:46:51;8.70;1.00
435;DHT22;204;48.942;9.256;2023-03-26T19:49:31;8.70;1.00
435;DHT22;204;48.942;9.256;2023-03-26T19:52:42;8.70;1.00
435;DHT22;204;48.942;9.256;2023-03-26T19:55:21;8.70;1.00
435;DHT22;204;48.942;9.256;2023-03-26T19:57:48;8.70;1.00
435;DHT22;204;48.942;9.256;2023-03-26T20:00:14;8.70;1.00
435;DHT22;204;48.942;9.256;2023-03-26T20:02:41;8.80;1.00
435;DHT22;204;48.942;9.256;2023-03-26T20:05:25;8.90;1.00
435;DHT22;204;48.942;9.256;2023-03-26T20:07:55;8.90;1.00
435;DHT22;204;48.942;9.256;2023-03-26T20:10:22;8.90;1.00
435;DHT22;204;48.942;9.256;2023-03-26T20:12:48;8.90;1.00
435;DHT22;204;48.942;9.256;2023-03-26T20:15:23;8.90;1.00
435;DHT22;204;48.942;9.256;2023-03-26T20:17:50;8.90;1.00
435;DHT22;204;48.942;9.256;2023-03-26T20:20:21;8.80;1.00
435;DHT22;204;48.942;9.256;2023-03-26T20:22:51;8.70;1.00
435;DHT22;204;48.942;9.256;2023-03-26T20:25:19;8.60;1.00
435;DHT22;204;48.942;9.256;2023-03-26T20:27:45;8.60;1.00
435;DHT22;204;48.942;9.256;2023-03-26T20:30:12;8.50;1.00
435;DHT22;204;48.942;9.256;2023-03-26T20:32:39;8.30;1.00
435;DHT22;204;48.942;9.256;2023-03-26T20:35:22;8.30;1.00
435;DHT22;204;48.942;9.256;2023-03-26T20:37:48;8.20;1.00
435;DHT22;204;48.942;9.256;2023-03-26T20:40:14;8.20;1.00
435;DHT22;204;48.942;9.256;2023-03-26T20:42:42;8.20;1.00
435;DHT22;204;48.942;9.256;2023-03-26T20:45:19;8.20;1.00
435;DHT22;204;48.942;9.256;2023-03-26T20:47:47;8.20;1.00
435;DHT22;204;48.942;9.256;2023-03-26T20:50:18;8.10;1.00
435;DHT22;204;48.942;9.256;2023-03-26T20:52:48;8.10;1.00
435;DHT22;204;48.942;9.256;2023-03-26T20:55:15;8.10;1.00
435;DHT22;204;48.942;9.256;2023-03-26T20:57:42;8.20;1.00
435;DHT22;204;48.942;9.256;2023-03-26T21:00:09;8.20;1.00
435;DHT22;204;48.942;9.256;2023-03-26T21:02:51;8.20;1.00
435;DHT22;204;48.942;9.256;2023-03-26T21:05:17;8.30;1.00
435;DHT22;204;48.942;9.256;2023-03-26T21:07:50;8.20;1.00
435;DHT22;204;48.942;9.256;2023-03-26T21:10:16;8.30;1.00
435;DHT22;204;48.942;9.256;2023-03-26T21:12:56;8.30;1.00
435;DHT22;204;48.942;9.256;2023-03-26T21:15:23;8.30;1.00
435;DHT22;204;48.942;9.256;2023-03-26T21:17:49;8.30;1.00
435;DHT22;204;48.942;9.256;2023-03-26T21:20:17;8.30;1.00
435;DHT22;204;48.942;9.256;2023-03-26T21:25:45;8.40;1.00
435;DHT22;204;48.942;9.256;2023-03-26T21:30:53;8.50;1.00
435;DHT22;204;48.942;9.256;2023-03-26T21:33:20;8.50;1.00
435;DHT22;204;48.942;9.256;2023-03-26T21:35:47;8.50;1.00
435;DHT22;204;48.942;9.256;2023-03-26T21:38:18;8.50;1.00
435;DHT22;204;48.942;9.256;2023-03-26T21:40:52;8.50;1.00
435;DHT22;204;48.942;9.256;2023-03-26T21:43:19;8.50;1.00
435;DHT22;204;48.942;9.256;2023-03-26T21:45:46;8.50;1.00
435;DHT22;204;48.942;9.256;2023-03-26T21:48:16;8.50;1.00
435;DHT22;204;48.942;9.256;2023-03-26T21:50:43;8.50;1.00
435;DHT22;204;48.942;9.256;2023-03-26T21:53:11;8.40;1.00
435;DHT22;204;48.942;9.256;2023-03-26T21:58:22;8.30;1.00
435;DHT22;204;48.942;9.256;2023-03-26T22:01:04;8.30;1.00
435;DHT22;204;48.942;9.256;2023-03-26T22:04:00;8.30;1.00
435;DHT22;204;48.942;9.256;2023-03-26T22:06:37;8.30;1.00
435;DHT22;204;48.942;9.256;2023-03-26T22:09:10;8.20;1.00
435;DHT22;204;48.942;9.256;2023-03-26T22:11:38;8.20;1.00
435;DHT22;204;48.942;9.256;2023-03-26T22:14:04;8.30;1.00
435;DHT22;204;48.942;9.256;2023-03-26T22:16:29;8.20;1.00
435;DHT22;204;48.942;9.256;2023-03-26T22:18:55;8.20;1.00
435;DHT22;204;48.942;9.256;2023-03-26T22:21:21;8.20;1.00
435;DHT22;204;48.942;9.256;2023-03-26T22:23:48;8.20;1.00
435;DHT22;204;48.942;9.256;2023-03-26T22:26:21;8.20;1.00
435;DHT22;204;48.942;9.256;2023-03-26T22:28:47;8.20;1.00
435;DHT22;204;48.942;9.256;2023-03-26T22:31:13;8.20;1.00
435;DHT22;204;48.942;9.256;2023-03-26T22:33:39;8.20;1.00
435;DHT22;204;48.942;9.256;2023-03-26T22:36:06;8.30;1.00
435;DHT22;204;48.942;9.256;2023-03-26T22:38:33;8.30;1.00
435;DHT22;204;48.942;9.256;2023-03-26T22:40:59;8.40;1.00
435;DHT22;204;48.942;9.256;2023-03-26T22:43:25;8.40;1.00
435;DHT22;204;48.942;9.256;2023-03-26T22:45:51;8.40;1.00
435;DHT22;204;48.942;9.256;2023-03-26T22:48:19;8.40;1.00
435;DHT22;204;48.942;9.256;2023-03-26T22:50:44;8.40;1.00
435;DHT22;204;48.942;9.256;2023-03-26T22:53:11;8.40;1.00
435;DHT22;204;48.942;9.256;2023-03-26T22:55:36;8.40;1.00
435;DHT22;204;48.942;9.256;2023-03-26T22:58:02;8.40;1.00
435;DHT22;204;48.942;9.256;2023-03-26T23:00:28;8.40;1.00
435;DHT22;204;48.942;9.256;2023-03-26T23:02:54;8.40;1.00
435;DHT22;204;48.942;9.256;2023-03-26T23:05:24;8.40;1.00
435;DHT22;204;48.942;9.256;2023-03-26T23:07:50;8.40;1.00
435;DHT22;204;48.942;9.256;2023-03-26T23:10:16;8.40;1.00
435;DHT22;204;48.942;9.256;2023-03-26T23:12:42;8.40;1.00
435;DHT22;204;48.942;9.256;2023-03-26T23:15:08;8.40;1.00
435;DHT22;204;48.942;9.256;2023-03-26T23:17:35;8.40;1.00
435;DHT22;204;48.942;9.256;2023-03-26T23:20:03;8.40;1.00
435;DHT22;204;48.942;9.256;2023-03-26T23:22:30;8.40;1.00
435;DHT22;204;48.942;9.256;2023-03-26T23:24:57;8.40;1.00
435;DHT22;204;48.942;9.256;2023-03-26T23:27:22;8.40;1.00
435;DHT22;204;48.942;9.256;2023-03-26T23:29:48;8.40;1.00
435;DHT22;204;48.942;9.256;2023-03-26T23:32:14;8.40;1.00
435;DHT22;204;48.942;9.256;2023-03-26T23:34:39;8.30;1.00